Terminal Aerodrome Forecast
Issued by NWS

Home | Current Version | Previous Version | Text Only | Print | Product List | Glossary On
Versions: 1 2 3 4 5 6 7 8 9 10 11 12 13 14 15
000
FTUS44 KEPZ 030532
TAFLRU
TAF
KLRU 030532Z 0306/0406 10012KT P6SM VCTS BKN120CB BKN250
     FM030800 07007KT P6SM SCT080 BKN250
     FM032300 11007G15KT P6SM VCTS SCT080CB OVC250=

USA.gov is the U.S. government's official web portal to all federal, state and local government web resources and services.